Lodi, Missouri
Current Conditions -  °F | °C
As of 10:53 AM on Saturday 25 Oct 2014 (Local Time) from KPOF Reporting Station
Clear Clear  
Wind Chill: 70°   Ceiling: Unl
Heat Index: 70°   Visibility: 7mi
Dew Point: 59°   Wind: 7mph
Humidity: 68%   Direction: 290°WNW
Pressure: 30.05"   Gusts: NA
Location:  37.26°N, 90.45°W
Report Text: KPOF 251553Z AUTO 29006KT 7SM CLR 21/15 A3005 RMK AO2 SLP175 T02110150
Loading
Personal Weather Stations






























Interactive Weather Map
Tropical Storm Tracking
New forecast layout! Learn more

10-Day Weather Forecast

Advertisements
Track Severe Weather on mobile